createdAt,value
2018-11-23T00:00:14.930Z,55.70
2018-11-23T00:02:44.454Z,40.77
2018-11-23T00:05:12.895Z,37.53
2018-11-23T00:07:41.898Z,49.57
2018-11-23T00:10:12.061Z,56.63
2018-11-23T00:12:40.427Z,64.63
2018-11-23T00:15:11.116Z,42.80
2018-11-23T00:17:39.707Z,63.50
2018-11-23T00:20:09.950Z,69.60
2018-11-23T00:22:38.567Z,68.47
2018-11-23T00:25:08.163Z,64.30
2018-11-23T00:27:36.767Z,62.10
2018-11-23T00:30:06.595Z,60.93
2018-11-23T00:32:35.000Z,59.43
2018-11-23T00:35:03.401Z,51.43
2018-11-23T00:37:31.766Z,58.60
2018-11-23T00:40:00.214Z,65.03
2018-11-23T00:42:28.531Z,51.27
2018-11-23T00:44:56.870Z,64.17
2018-11-23T00:47:25.246Z,55.27
2018-11-23T00:49:53.604Z,44.67
2018-11-23T00:52:21.956Z,40.87
2018-11-23T00:54:50.282Z,43.00
2018-11-23T00:57:18.858Z,42.23
2018-11-23T00:59:47.271Z,44.53
2018-11-23T01:02:15.678Z,41.53
2018-11-23T01:04:44.027Z,44.57
2018-11-23T01:07:12.381Z,40.50
2018-11-23T01:09:40.719Z,38.30
2018-11-23T01:12:09.045Z,40.90
2018-11-23T01:14:37.374Z,45.27
2018-11-23T01:17:05.757Z,48.00
2018-11-23T01:19:34.123Z,48.23
2018-11-23T01:22:02.463Z,47.50
2018-11-23T01:24:30.815Z,53.00
2018-11-23T01:26:59.199Z,57.23
2018-11-23T01:29:27.564Z,48.80
2018-11-23T01:31:55.923Z,54.77
2018-11-23T01:34:24.281Z,64.13
2018-11-23T01:36:52.627Z,61.67
2018-11-23T01:39:20.963Z,59.77
2018-11-23T01:41:50.125Z,63.57
2018-11-23T01:44:18.496Z,67.03
2018-11-23T01:46:46.907Z,71.90
2018-11-23T01:49:15.247Z,57.93
2018-11-23T01:51:43.600Z,43.80
2018-11-23T01:54:11.947Z,41.87
2018-11-23T01:56:40.265Z,48.50
2018-11-23T01:59:08.663Z,42.07
2018-11-23T02:01:37.041Z,37.57
2018-11-23T02:04:05.488Z,40.87
2018-11-23T02:06:33.854Z,48.90
2018-11-23T02:09:02.365Z,43.83
2018-11-23T02:11:30.768Z,49.20
2018-11-23T02:13:59.089Z,55.07
2018-11-23T02:16:27.463Z,52.17
2018-11-23T02:18:55.834Z,46.97
2018-11-23T02:21:24.214Z,44.67
2018-11-23T02:23:52.587Z,44.37
2018-11-23T02:26:20.968Z,46.57
2018-11-23T02:28:49.353Z,52.17
2018-11-23T02:31:22.149Z,53.77
2018-11-23T02:33:51.074Z,48.13
2018-11-23T02:36:19.460Z,46.27
2018-11-23T02:38:47.812Z,51.63
2018-11-23T02:41:16.239Z,50.13
2018-11-23T02:43:44.623Z,37.43
2018-11-23T02:46:12.952Z,32.03
2018-11-23T02:48:41.270Z,39.23
2018-11-23T02:51:09.594Z,35.03
2018-11-23T02:53:37.907Z,44.43
2018-11-23T02:56:06.280Z,53.83
2018-11-23T02:58:34.627Z,49.53
2018-11-23T03:01:02.998Z,45.60
2018-11-23T03:03:31.343Z,48.60
2018-11-23T03:05:59.691Z,42.70
2018-11-23T03:08:28.020Z,52.97
2018-11-23T03:10:56.370Z,48.60
2018-11-23T03:13:24.708Z,57.47
2018-11-23T03:15:53.064Z,59.07
2018-11-23T03:18:21.387Z,55.70
2018-11-23T03:20:49.811Z,64.20
2018-11-23T03:23:20.098Z,71.07
2018-11-23T03:25:49.163Z,60.37
2018-11-23T03:28:17.511Z,76.73
2018-11-23T03:30:45.895Z,83.37
2018-11-23T03:33:14.306Z,75.50
2018-11-23T03:35:42.639Z,74.87
2018-11-23T03:38:11.014Z,95.07
2018-11-23T03:40:39.351Z,81.20
2018-11-23T03:43:07.756Z,98.00
2018-11-23T03:45:36.107Z,95.57
2018-11-23T03:48:04.487Z,77.63
2018-11-23T03:50:32.847Z,72.13
2018-11-23T03:53:01.184Z,81.30
2018-11-23T03:55:29.549Z,79.83
2018-11-23T03:57:57.853Z,84.93
2018-11-23T04:00:26.210Z,74.20
2018-11-23T04:02:55.348Z,58.27
2018-11-23T04:05:25.367Z,60.57
2018-11-23T04:07:53.724Z,79.63
2018-11-23T04:10:22.065Z,45.33
2018-11-23T04:12:50.399Z,36.70
2018-11-23T04:15:18.817Z,42.37
2018-11-23T04:17:47.139Z,33.13
2018-11-23T04:20:16.644Z,30.70
2018-11-23T04:22:45.003Z,24.27
2018-11-23T04:25:13.723Z,23.60
2018-11-23T04:27:42.693Z,26.57
2018-11-23T04:30:13.038Z,28.73
2018-11-23T04:32:41.371Z,27.30
2018-11-23T04:35:11.607Z,27.27
2018-11-23T04:37:40.065Z,35.53
2018-11-23T04:40:09.792Z,43.53
2018-11-23T04:42:38.317Z,41.77
2018-11-23T04:45:06.906Z,41.03
2018-11-23T04:47:35.419Z,40.63
2018-11-23T04:50:03.901Z,46.97
2018-11-23T04:52:32.227Z,47.40
2018-11-23T04:55:00.575Z,26.83
2018-11-23T04:57:28.929Z,25.10
2018-11-23T04:59:57.812Z,33.53
2018-11-23T05:02:26.295Z,28.93
2018-11-23T05:04:54.705Z,33.77
2018-11-23T05:07:23.070Z,28.67
2018-11-23T05:09:51.520Z,25.97
2018-11-23T05:12:20.123Z,29.70
2018-11-23T05:14:48.492Z,37.67
2018-11-23T05:17:16.858Z,28.00
2018-11-23T05:19:45.270Z,27.83
2018-11-23T05:22:13.623Z,29.47
2018-11-23T05:24:41.979Z,26.93
2018-11-23T05:27:10.299Z,25.57
2018-11-23T05:29:38.628Z,36.40
2018-11-23T05:32:06.952Z,29.37
2018-11-23T05:34:35.403Z,37.53
2018-11-23T05:37:03.826Z,29.07
2018-11-23T05:39:32.177Z,32.17
2018-11-23T05:42:00.536Z,32.70
2018-11-23T05:44:28.912Z,37.20
2018-11-23T05:46:57.228Z,43.60
2018-11-23T05:49:25.536Z,48.57
2018-11-23T05:51:53.864Z,28.53
2018-11-23T05:54:22.199Z,33.47
2018-11-23T05:56:50.554Z,48.57
2018-11-23T05:59:18.899Z,48.40
2018-11-23T06:01:47.232Z,46.60
2018-11-23T06:04:15.562Z,44.67
2018-11-23T06:06:43.906Z,50.97
2018-11-23T06:09:12.222Z,55.17
2018-11-23T06:11:40.533Z,58.45
2018-11-23T06:14:08.910Z,61.07
2018-11-23T06:16:37.246Z,58.80
2018-11-23T06:19:05.634Z,51.90
2018-11-23T06:21:34.059Z,46.97
2018-11-23T06:24:02.383Z,59.20
2018-11-23T06:26:31.229Z,54.20
2018-11-23T06:28:59.553Z,62.20
2018-11-23T06:31:27.950Z,66.93
2018-11-23T06:33:56.382Z,54.07
2018-11-23T06:36:24.713Z,53.27
2018-11-23T06:38:53.030Z,47.17
2018-11-23T06:41:21.501Z,37.17
2018-11-23T06:43:49.935Z,31.53
2018-11-23T06:46:18.280Z,35.93
2018-11-23T06:48:46.679Z,27.93
2018-11-23T06:51:15.024Z,39.17
2018-11-23T06:53:43.365Z,35.97
2018-11-23T06:56:11.679Z,38.33
2018-11-23T06:58:40.035Z,35.73
2018-11-23T07:01:08.403Z,35.23
2018-11-23T07:03:36.761Z,48.30
2018-11-23T07:06:05.135Z,38.93
2018-11-23T07:08:33.445Z,38.07
2018-11-23T07:11:03.077Z,42.83
2018-11-23T07:13:32.071Z,39.10
2018-11-23T07:16:00.482Z,31.10
2018-11-23T07:18:28.936Z,29.00
2018-11-23T07:20:57.421Z,31.33
2018-11-23T07:23:25.791Z,33.67
2018-11-23T07:25:54.235Z,30.00
2018-11-23T07:28:22.575Z,25.63
2018-11-23T07:30:50.991Z,30.30
2018-11-23T07:33:19.371Z,25.60
2018-11-23T07:35:47.790Z,27.67
2018-11-23T07:38:16.110Z,26.23
2018-11-23T07:40:55.779Z,39.73
2018-11-23T07:43:24.151Z,41.90
2018-11-23T07:45:52.541Z,43.03
2018-11-23T07:48:20.910Z,46.43
2018-11-23T07:50:49.591Z,49.57
2018-11-23T07:53:17.956Z,44.13
2018-11-23T07:55:46.299Z,49.17
2018-11-23T07:58:14.678Z,47.83
2018-11-23T08:00:43.027Z,59.33
2018-11-23T08:03:11.789Z,44.53
2018-11-23T08:05:40.138Z,50.27
2018-11-23T08:08:08.499Z,53.17
2018-11-23T08:10:38.106Z,49.03
2018-11-23T08:13:06.720Z,49.83
2018-11-23T08:15:35.616Z,53.57
2018-11-23T08:18:04.035Z,48.43
2018-11-23T08:20:32.403Z,47.77
2018-11-23T08:23:00.803Z,45.73
2018-11-23T08:25:29.159Z,42.27
2018-11-23T08:27:57.534Z,45.27
2018-11-23T08:30:28.074Z,46.17
2018-11-23T08:32:56.753Z,52.17
2018-11-23T08:35:25.167Z,49.83
2018-11-23T08:37:53.499Z,54.23
2018-11-23T08:40:23.266Z,62.63
2018-11-23T08:42:52.238Z,58.93
2018-11-23T08:45:21.979Z,59.47
2018-11-23T08:47:50.336Z,48.67
2018-11-23T08:50:27.826Z,49.00
2018-11-23T08:52:56.156Z,45.27
2018-11-23T08:55:24.706Z,57.13
2018-11-23T08:57:53.222Z,43.83
2018-11-23T09:00:23.582Z,52.37
2018-11-23T09:02:53.453Z,53.03
2018-11-23T09:05:21.955Z,45.63
2018-11-23T09:07:51.563Z,50.50
2018-11-23T09:10:23.341Z,38.27
2018-11-23T09:12:53.474Z,39.67
2018-11-23T09:15:21.928Z,38.63
2018-11-23T09:17:50.258Z,45.80
2018-11-23T09:20:18.905Z,44.33
2018-11-23T09:22:47.519Z,38.27
2018-11-23T09:25:17.322Z,41.07
2018-11-23T09:27:45.842Z,40.67
2018-11-23T09:30:19.630Z,53.40
2018-11-23T09:32:48.759Z,42.30
2018-11-23T09:35:17.158Z,43.77
2018-11-23T09:37:46.547Z,50.13
2018-11-23T09:40:16.444Z,48.63
2018-11-23T09:42:44.908Z,47.80
2018-11-23T09:45:15.698Z,55.30
2018-11-23T09:47:44.989Z,43.93
2018-11-23T09:50:14.696Z,44.23
2018-11-23T09:52:43.495Z,25.77
2018-11-23T09:55:11.963Z,37.53
2018-11-23T09:57:40.483Z,32.87
2018-11-23T10:00:11.670Z,11.60
2018-11-23T10:02:40.251Z,12.00
2018-11-23T10:05:09.460Z,10.67
2018-11-23T10:07:37.865Z,14.33
2018-11-23T10:10:07.387Z,17.30
2018-11-23T10:12:35.800Z,18.33
2018-11-23T10:15:04.520Z,14.37
2018-11-23T10:17:32.886Z,18.90
2018-11-23T10:20:01.292Z,15.10
2018-11-23T10:22:29.699Z,13.80
2018-11-23T10:24:58.033Z,18.80
2018-11-23T10:27:26.422Z,17.50
2018-11-23T10:29:55.360Z,14.20
2018-11-23T10:32:23.240Z,19.20
2018-11-23T10:34:51.663Z,17.40
2018-11-23T10:37:20.053Z,12.47
2018-11-23T10:39:48.387Z,16.20
2018-11-23T10:42:16.731Z,15.73
2018-11-23T10:44:45.181Z,15.03
2018-11-23T10:47:13.591Z,10.90
2018-11-23T10:49:42.093Z,15.37
2018-11-23T10:52:10.794Z,20.03
2018-11-23T10:54:39.168Z,18.97
2018-11-23T10:57:07.531Z,19.43
2018-11-23T10:59:35.902Z,22.47
2018-11-23T11:02:08.859Z,18.13
2018-11-23T11:04:42.721Z,30.03
2018-11-23T11:07:11.133Z,36.37
2018-11-23T11:09:39.535Z,35.90
2018-11-23T11:12:07.961Z,35.43
2018-11-23T11:14:36.331Z,34.77
2018-11-23T11:17:04.838Z,36.73
2018-11-23T11:19:33.234Z,31.10
2018-11-23T11:22:01.587Z,27.70
2018-11-23T11:24:30.063Z,34.20
2018-11-23T11:26:58.876Z,34.67
2018-11-23T11:29:27.276Z,37.50
2018-11-23T11:31:55.723Z,29.97
2018-11-23T11:34:24.378Z,26.83
2018-11-23T11:36:52.747Z,34.40
2018-11-23T11:39:21.107Z,31.10
2018-11-23T11:41:49.471Z,31.40
2018-11-23T11:44:17.852Z,31.03
2018-11-23T11:46:46.175Z,36.07
2018-11-23T11:49:14.591Z,32.80
2018-11-23T11:51:42.935Z,29.57
2018-11-23T11:54:11.295Z,29.93
2018-11-23T11:56:39.678Z,32.83
2018-11-23T11:59:08.091Z,47.70
2018-11-23T12:01:36.602Z,30.10
2018-11-23T12:04:05.242Z,29.90
2018-11-23T12:06:33.562Z,30.87
2018-11-23T12:09:01.932Z,30.03
2018-11-23T12:11:30.483Z,30.83
2018-11-23T12:13:58.832Z,26.20
2018-11-23T12:16:27.251Z,29.73
2018-11-23T12:18:55.626Z,34.90
2018-11-23T12:21:24.026Z,32.87
2018-11-23T12:23:52.379Z,34.90
2018-11-23T12:26:20.793Z,45.70
2018-11-23T12:28:49.177Z,120.23
2018-11-23T12:31:17.546Z,69.67
2018-11-23T12:33:46.096Z,76.77
2018-11-23T12:36:14.492Z,43.67
2018-11-23T12:38:43.061Z,38.97
2018-11-23T12:41:11.443Z,24.43
2018-11-23T12:43:39.802Z,35.60
2018-11-23T12:46:08.160Z,33.30
2018-11-23T12:48:36.535Z,28.97
2018-11-23T12:51:06.126Z,22.07
2018-11-23T12:53:36.940Z,27.07
2018-11-23T12:56:06.218Z,27.13
2018-11-23T12:58:34.597Z,22.70
2018-11-23T13:01:03.057Z,24.63
2018-11-23T13:03:31.491Z,20.63
2018-11-23T13:05:59.915Z,29.43
2018-11-23T13:08:28.235Z,22.93
2018-11-23T13:10:56.655Z,17.60
2018-11-23T13:13:25.022Z,23.20
2018-11-23T13:15:53.417Z,24.60
2018-11-23T13:18:21.763Z,23.40
2018-11-23T13:20:50.378Z,20.27
2018-11-23T13:23:18.727Z,19.97
2018-11-23T13:25:47.149Z,15.37
2018-11-23T13:28:15.565Z,14.33
2018-11-23T13:30:43.934Z,13.83
2018-11-23T13:33:12.371Z,10.07
2018-11-23T13:35:40.732Z,10.30
2018-11-23T13:38:09.119Z,14.93
2018-11-23T13:40:37.499Z,33.60
2018-11-23T13:43:05.990Z,14.47
2018-11-23T13:45:34.563Z,14.77
2018-11-23T13:48:03.074Z,15.33
2018-11-23T13:50:31.469Z,12.17
2018-11-23T13:53:01.140Z,10.83
2018-11-23T13:55:29.714Z,10.43
2018-11-23T13:57:58.077Z,15.70
2018-11-23T14:00:27.752Z,15.10
2018-11-23T14:02:56.200Z,25.00
2018-11-23T14:05:26.959Z,24.33
2018-11-23T14:07:56.881Z,14.43
2018-11-23T14:10:26.127Z,12.73
2018-11-23T14:12:54.511Z,9.03
2018-11-23T14:15:24.217Z,10.93
2018-11-23T14:17:53.635Z,8.67
2018-11-23T14:20:22.911Z,13.33
2018-11-23T14:22:51.380Z,15.43
2018-11-23T14:25:21.194Z,10.57
2018-11-23T14:27:50.135Z,13.50
2018-11-23T14:30:22.245Z,12.70
2018-11-23T14:32:50.939Z,13.27
2018-11-23T14:35:21.872Z,14.20
2018-11-23T14:37:51.107Z,15.77
2018-11-23T14:40:19.587Z,19.43
2018-11-23T14:42:49.023Z,26.70
2018-11-23T14:45:21.451Z,31.10
2018-11-23T14:47:50.454Z,34.60
2018-11-23T14:50:22.244Z,36.03
2018-11-23T14:52:51.574Z,26.30
2018-11-23T14:55:26.720Z,20.13
2018-11-23T14:57:55.746Z,17.57
2018-11-23T15:00:33.951Z,19.90
2018-11-23T15:03:04.553Z,17.03
2018-11-23T15:05:34.285Z,10.77
2018-11-23T15:08:02.678Z,22.40
2018-11-23T15:10:32.869Z,18.90
2018-11-23T15:13:02.203Z,11.70
2018-11-23T15:15:35.104Z,19.00
2018-11-23T15:18:03.837Z,19.47
2018-11-23T15:20:41.440Z,12.13
2018-11-23T15:23:15.717Z,13.07
2018-11-23T15:25:47.822Z,8.63
2018-11-23T15:28:18.040Z,15.83
2018-11-23T15:31:00.439Z,14.67
2018-11-23T15:33:30.009Z,16.40
2018-11-23T15:36:01.316Z,18.10
2018-11-23T15:38:33.494Z,23.67
2018-11-23T15:41:03.051Z,23.53
2018-11-23T15:43:34.302Z,24.07
2018-11-23T15:46:02.651Z,22.67
2018-11-23T15:48:31.407Z,29.23
2018-11-23T15:51:08.508Z,24.03
2018-11-23T15:53:38.237Z,27.83
2018-11-23T15:56:08.230Z,34.57
2018-11-23T15:58:36.999Z,25.73
2018-11-23T16:01:05.974Z,25.27
2018-11-23T16:03:35.961Z,27.03
2018-11-23T16:06:04.922Z,42.83
2018-11-23T16:08:35.894Z,49.70
2018-11-23T16:11:04.546Z,27.03
2018-11-23T16:13:32.920Z,21.23
2018-11-23T16:16:01.333Z,20.67
2018-11-23T16:18:29.698Z,17.50
2018-11-23T16:21:00.099Z,17.30
2018-11-23T16:23:28.790Z,29.80
2018-11-23T16:26:02.011Z,16.90
2018-11-23T16:28:31.144Z,32.07
2018-11-23T16:30:59.563Z,19.73
2018-11-23T16:33:27.928Z,11.87
2018-11-23T16:35:56.312Z,15.90
2018-11-23T16:38:24.930Z,13.73
2018-11-23T16:40:54.830Z,8.37
2018-11-23T16:43:23.339Z,10.03
2018-11-23T16:45:51.801Z,16.40
2018-11-23T16:48:20.772Z,10.90
2018-11-23T16:50:49.161Z,12.53
2018-11-23T16:53:17.555Z,12.00
2018-11-23T16:55:45.884Z,12.83
2018-11-23T16:58:15.382Z,8.93
2018-11-23T17:00:45.304Z,16.63
2018-11-23T17:03:15.275Z,10.77
2018-11-23T17:05:45.974Z,13.03
2018-11-23T17:08:14.419Z,11.63
2018-11-23T17:10:42.819Z,16.30
2018-11-23T17:13:11.327Z,11.70
2018-11-23T17:15:39.821Z,13.33
2018-11-23T17:18:09.128Z,15.33
2018-11-23T17:20:38.211Z,21.07
2018-11-23T17:23:07.655Z,14.77
2018-11-23T17:25:36.020Z,11.07
2018-11-23T17:28:06.023Z,11.13
2018-11-23T17:30:35.084Z,15.37
2018-11-23T17:33:03.588Z,14.30
2018-11-23T17:35:31.935Z,12.10
2018-11-23T17:38:00.270Z,9.50
2018-11-23T17:40:30.234Z,7.90
2018-11-23T17:42:58.598Z,13.50
2018-11-23T17:45:28.986Z,12.13
2018-11-23T17:47:57.404Z,12.23
2018-11-23T17:50:27.122Z,10.20
2018-11-23T17:52:55.676Z,12.50
2018-11-23T17:55:24.018Z,16.17
2018-11-23T17:57:53.208Z,14.13
2018-11-23T18:00:23.859Z,15.87
2018-11-23T18:02:52.855Z,21.00
2018-11-23T18:05:22.071Z,19.47
2018-11-23T18:07:50.673Z,25.40
2018-11-23T18:10:20.347Z,23.03
2018-11-23T18:12:49.067Z,25.23
2018-11-23T18:15:19.446Z,23.87
2018-11-23T18:17:48.591Z,24.47
2018-11-23T18:20:18.123Z,24.07
2018-11-23T18:22:47.048Z,20.63
2018-11-23T18:25:20.846Z,19.50
2018-11-23T18:27:49.528Z,16.83
2018-11-23T18:30:17.914Z,20.30
2018-11-23T18:32:46.243Z,16.10
2018-11-23T18:35:14.659Z,17.50
2018-11-23T18:37:43.055Z,19.20
2018-11-23T18:40:12.503Z,20.50
2018-11-23T18:42:40.856Z,26.20
2018-11-23T18:45:13.771Z,19.50
2018-11-23T18:47:42.982Z,12.97
2018-11-23T18:50:13.400Z,15.23
2018-11-23T18:52:41.963Z,17.03
2018-11-23T18:55:17.554Z,15.50
2018-11-23T18:57:39.767Z,16.97
2018-11-23T19:00:13.471Z,16.03
2018-11-23T19:02:42.698Z,16.10
2018-11-23T19:05:15.275Z,18.27
2018-11-23T19:07:43.667Z,16.90
2018-11-23T19:10:12.998Z,14.73
2018-11-23T19:12:41.422Z,18.03
2018-11-23T19:15:13.028Z,13.67
2018-11-23T19:17:41.445Z,19.73
2018-11-23T19:20:12.051Z,19.13
2018-11-23T19:22:41.042Z,16.70
2018-11-23T19:25:09.495Z,19.07
2018-11-23T19:27:37.890Z,17.03
2018-11-23T19:30:08.968Z,19.83
2018-11-23T19:32:37.364Z,16.23
2018-11-23T19:35:06.390Z,16.53
2018-11-23T19:37:34.781Z,27.50
2018-11-23T19:40:03.616Z,17.33
2018-11-23T19:42:32.035Z,20.87
2018-11-23T19:45:00.380Z,18.57
2018-11-23T19:47:28.726Z,15.37
2018-11-23T19:49:57.207Z,16.23
2018-11-23T19:52:25.623Z,19.10
2018-11-23T19:54:54.053Z,18.80
2018-11-23T19:57:22.501Z,17.90
2018-11-23T19:59:50.893Z,27.47
2018-11-23T20:02:19.934Z,29.00
2018-11-23T20:04:47.843Z,33.10
2018-11-23T20:07:16.319Z,38.50
2018-11-23T20:09:44.705Z,46.20
2018-11-23T20:12:13.123Z,53.00
2018-11-23T20:14:41.464Z,62.43
2018-11-23T20:17:09.843Z,56.83
2018-11-23T20:19:38.276Z,56.07
2018-11-23T20:22:06.691Z,63.43
2018-11-23T20:24:35.224Z,53.90
2018-11-23T20:27:03.620Z,61.67
2018-11-23T20:29:32.012Z,72.23
2018-11-23T20:32:00.835Z,50.53
2018-11-23T20:34:29.512Z,47.87
2018-11-23T20:36:57.859Z,43.27
2018-11-23T20:39:26.262Z,50.60
2018-11-23T20:41:56.279Z,46.13
2018-11-23T20:44:24.609Z,65.57
2018-11-23T20:46:53.041Z,49.73
2018-11-23T20:49:21.424Z,105.23
2018-11-23T20:51:49.894Z,43.70
2018-11-23T20:54:18.578Z,72.40
2018-11-23T20:56:46.944Z,43.63
2018-11-23T20:59:15.375Z,73.77
2018-11-23T21:01:43.809Z,75.77
2018-11-23T21:04:12.266Z,68.20
2018-11-23T21:06:40.638Z,50.37
2018-11-23T21:09:09.748Z,69.93
2018-11-23T21:11:38.183Z,50.10
2018-11-23T21:14:06.554Z,62.63
2018-11-23T21:16:35.865Z,65.70
2018-11-23T21:19:09.058Z,64.70
2018-11-23T21:21:38.098Z,55.97
2018-11-23T21:24:06.706Z,61.50
2018-11-23T21:26:35.986Z,61.27
2018-11-23T21:29:05.238Z,61.03
2018-11-23T21:31:33.754Z,54.40
2018-11-23T21:34:02.341Z,66.13
2018-11-23T21:36:30.843Z,69.10
2018-11-23T21:38:59.363Z,61.47
2018-11-23T21:41:29.705Z,70.63
2018-11-23T21:43:56.303Z,47.53
2018-11-23T21:46:24.818Z,63.13
2018-11-23T21:48:53.279Z,54.70
2018-11-23T21:51:21.846Z,55.40
2018-11-23T21:53:50.310Z,61.20
2018-11-23T21:56:20.026Z,52.17
2018-11-23T21:58:48.582Z,50.67
2018-11-23T22:01:16.974Z,60.53
2018-11-23T22:03:48.459Z,61.40
2018-11-23T22:06:16.968Z,66.60
2018-11-23T22:08:45.408Z,64.70
2018-11-23T22:11:14.079Z,63.50
2018-11-23T22:13:42.941Z,63.23
2018-11-23T22:16:11.437Z,54.53
2018-11-23T22:18:40.068Z,61.87
2018-11-23T22:21:08.699Z,50.43
2018-11-23T22:23:37.076Z,51.00
2018-11-23T22:26:05.671Z,46.93
2018-11-23T22:28:34.103Z,53.17
2018-11-23T22:31:02.549Z,46.17
2018-11-23T22:33:30.996Z,43.03
2018-11-23T22:35:59.513Z,42.03
2018-11-23T22:38:28.667Z,41.57
2018-11-23T22:40:57.146Z,48.97
2018-11-23T22:43:25.571Z,53.30
2018-11-23T22:45:53.935Z,40.40
2018-11-23T22:48:22.256Z,41.80
2018-11-23T22:50:50.587Z,55.60
2018-11-23T22:53:19.028Z,49.40
2018-11-23T22:55:47.384Z,61.93
2018-11-23T22:58:15.740Z,42.13
2018-11-23T23:00:44.484Z,45.63
2018-11-23T23:03:13.404Z,50.57
2018-11-23T23:05:42.615Z,45.40
2018-11-23T23:08:10.324Z,55.17
2018-11-23T23:10:38.727Z,51.93
2018-11-23T23:13:07.075Z,48.23
2018-11-23T23:15:35.453Z,43.70
2018-11-23T23:18:03.898Z,39.00
2018-11-23T23:20:32.251Z,44.03
2018-11-23T23:23:00.615Z,33.70
2018-11-23T23:25:28.975Z,33.93
2018-11-23T23:27:57.431Z,40.90
2018-11-23T23:30:25.768Z,42.93
2018-11-23T23:32:54.189Z,44.87
2018-11-23T23:35:22.676Z,32.57
2018-11-23T23:37:51.065Z,26.67
2018-11-23T23:40:19.637Z,37.37
2018-11-23T23:42:48.667Z,33.70
2018-11-23T23:45:17.796Z,30.10
2018-11-23T23:47:46.249Z,36.87
2018-11-23T23:50:16.580Z,36.63
2018-11-23T23:52:44.919Z,47.50
2018-11-23T23:55:13.393Z,37.53
2018-11-23T23:57:44.227Z,34.30
